Time;durP1;ratioP1;P1;durP2;ratioP2;P2;SDS_P1;SDS_P2;PMS_P1;PMS_P2;Temp;Humidity;BMP_temperature;BMP_pressure;BME280_temperature;BME280_humidity;BME280_pressure;Samples;Min_cycle;Max_cycle;Signal;HPM_P1;HPM_P2
2021/05/24 00:00:02;;;;;;;3.65;0.77;;;12.80;99.90;;;;;;6092529;23;20331;-82
2021/05/24 00:02:29;;;;;;;3.05;1.00;;;12.80;99.90;;;;;;6094584;23;20026;-82
2021/05/24 00:04:56;;;;;;;2.15;1.15;;;12.80;99.90;;;;;;6080339;23;20363;-82
2021/05/24 00:07:22;;;;;;;3.45;1.10;;;12.80;99.90;;;;;;6120069;23;20029;-82
2021/05/24 00:09:49;;;;;;;2.88;1.13;;;12.70;99.90;;;;;;6120536;23;20037;-82
2021/05/24 00:12:24;;;;;;;1.98;1.17;;;12.70;99.90;;;;;;6095515;23;20077;-82
2021/05/24 00:14:52;;;;;;;2.70;1.23;;;12.60;99.90;;;;;;6095762;23;20099;-82
2021/05/24 00:17:19;;;;;;;1.38;1.15;;;12.50;99.90;;;;;;6093755;23;20053;-82
2021/05/24 00:19:47;;;;;;;3.95;1.08;;;12.40;99.90;;;;;;6094435;23;20406;-82
2021/05/24 00:22:14;;;;;;;2.10;1.25;;;12.30;99.90;;;;;;6121769;23;20068;-82
2021/05/24 00:24:41;;;;;;;3.97;1.65;;;12.20;99.90;;;;;;6096770;23;20028;-82
2021/05/24 00:27:08;;;;;;;2.85;1.30;;;12.20;99.90;;;;;;6095592;23;20494;-81
2021/05/24 00:29:35;;;;;;;4.70;1.58;;;12.10;99.90;;;;;;6096115;23;20108;-82
2021/05/24 00:32:02;;;;;;;3.13;1.25;;;12.10;99.90;;;;;;6098310;23;20028;-81
2021/05/24 00:34:29;;;;;;;4.75;1.50;;;12.10;99.90;;;;;;6095372;23;20021;-82
2021/05/24 00:36:56;;;;;;;2.55;1.20;;;12.00;99.90;;;;;;6095131;23;20026;-81
2021/05/24 00:39:23;;;;;;;4.97;1.58;;;12.00;99.90;;;;;;6097246;23;21389;-81
2021/05/24 00:41:50;;;;;;;5.22;1.77;;;12.00;99.90;;;;;;6082250;23;20033;-81
2021/05/24 00:44:17;;;;;;;3.63;1.20;;;11.90;99.90;;;;;;6096698;23;20105;-82
2021/05/24 00:46:44;;;;;;;1.95;1.33;;;11.90;99.90;;;;;;6088863;23;20078;-82
2021/05/24 00:49:10;;;;;;;2.58;1.10;;;11.90;99.90;;;;;;6122164;23;20021;-81
2021/05/24 00:51:37;;;;;;;4.28;1.27;;;11.90;99.90;;;;;;6119916;23;20045;-83
2021/05/24 00:54:04;;;;;;;4.43;1.77;;;11.90;99.90;;;;;;6096041;23;20022;-82
2021/05/24 00:56:31;;;;;;;2.72;1.10;;;11.90;99.90;;;;;;6096109;23;20018;-81
2021/05/24 00:58:58;;;;;;;4.45;2.40;;;11.90;99.90;;;;;;6096711;23;20463;-82
2021/05/24 01:01:28;;;;;;;5.53;1.40;;;11.80;99.90;;;;;;6093561;23;20101;-82
2021/05/24 01:03:57;;;;;;;5.53;1.35;;;11.80;99.90;;;;;;6095634;23;20029;-82
2021/05/24 01:06:24;;;;;;;4.00;1.23;;;11.90;99.90;;;;;;6070802;23;20024;-83
2021/05/24 01:08:51;;;;;;;2.85;0.80;;;11.90;99.90;;;;;;6094759;23;20030;-83
2021/05/24 01:11:21;;;;;;;2.53;0.93;;;11.90;99.90;;;;;;6093808;23;20458;-81
2021/05/24 01:13:48;;;;;;;2.15;0.80;;;11.90;99.90;;;;;;6095181;23;20032;-81
2021/05/24 01:16:15;;;;;;;3.55;1.25;;;12.00;99.90;;;;;;6097219;23;20034;-81
2021/05/24 01:18:42;;;;;;;3.45;0.90;;;12.00;99.90;;;;;;6093016;23;20041;-82
2021/05/24 01:21:13;;;;;;;3.03;0.90;;;12.00;99.90;;;;;;6120428;23;22526;-82
2021/05/24 01:23:45;;;;;;;3.50;1.10;;;12.10;99.90;;;;;;6120275;23;20096;-82
2021/05/24 01:26:16;;;;;;;1.25;0.70;;;12.10;99.90;;;;;;6120264;23;20024;-81
2021/05/24 01:28:43;;;;;;;2.58;0.90;;;12.10;99.90;;;;;;6096267;23;20034;-81
2021/05/24 01:31:11;;;;;;;3.35;1.02;;;12.20;99.90;;;;;;6094962;23;20049;-82
2021/05/24 01:33:38;;;;;;;1.08;0.70;;;12.20;99.90;;;;;;6094296;23;20032;-82
2021/05/24 01:36:07;;;;;;;4.30;0.90;;;12.20;99.90;;;;;;6093104;23;20076;-82
2021/05/24 01:38:37;;;;;;;5.28;0.93;;;12.20;99.90;;;;;;6094693;23;20046;-82
2021/05/24 01:41:06;;;;;;;1.38;1.10;;;12.20;99.90;;;;;;6093546;23;20033;-81
2021/05/24 01:43:33;;;;;;;2.33;1.00;;;12.20;99.90;;;;;;6095085;23;20033;-81
2021/05/24 01:46:01;;;;;;;5.05;0.95;;;12.30;99.90;;;;;;6094771;23;20101;-82
2021/05/24 01:48:28;;;;;;;2.65;0.90;;;12.30;99.90;;;;;;6118542;23;20074;-83
2021/05/24 01:50:55;;;;;;;1.52;0.90;;;12.30;99.90;;;;;;6096960;23;20060;-82
2021/05/24 01:53:23;;;;;;;2.92;0.70;;;12.30;99.90;;;;;;6093238;23;20105;-81
2021/05/24 01:55:50;;;;;;;1.88;0.90;;;12.40;99.90;;;;;;6094442;23;20518;-82
2021/05/24 01:58:17;;;;;;;4.68;0.90;;;12.30;99.90;;;;;;6095205;23;20026;-83
2021/05/24 02:00:44;;;;;;;10.70;1.05;;;12.30;99.90;;;;;;6096319;23;20022;-82
2021/05/24 02:03:12;;;;;;;2.17;0.88;;;12.30;99.90;;;;;;6095236;23;20049;-82
2021/05/24 02:05:39;;;;;;;0.77;0.65;;;12.40;99.90;;;;;;6121134;23;20045;-82
2021/05/24 02:08:07;;;;;;;3.53;1.08;;;12.40;99.90;;;;;;6094624;23;20053;-82
2021/05/24 02:10:39;;;;;;;2.55;0.70;;;12.40;99.90;;;;;;6095500;23;20030;-81
2021/05/24 02:13:07;;;;;;;2.20;0.82;;;12.40;99.90;;;;;;6093784;23;20025;-81
2021/05/24 02:15:37;;;;;;;3.80;0.93;;;12.40;99.90;;;;;;6095478;23;20030;-82
2021/05/24 02:18:05;;;;;;;6.53;1.25;;;12.30;99.90;;;;;;6095185;23;20082;-81
2021/05/24 02:20:34;;;;;;;2.50;0.80;;;12.40;99.90;;;;;;6096918;23;20029;-81
2021/05/24 02:23:03;;;;;;;3.42;1.35;;;12.40;99.90;;;;;;6095365;23;20024;-83
2021/05/24 02:25:30;;;;;;;3.50;0.75;;;12.40;99.90;;;;;;6093445;23;20041;-81
2021/05/24 02:27:58;;;;;;;5.07;0.80;;;12.40;99.90;;;;;;6094663;23;20113;-82
2021/05/24 02:30:26;;;;;;;2.10;0.50;;;12.40;99.90;;;;;;6094092;23;20044;-82
2021/05/24 02:32:58;;;;;;;0.65;0.40;;;12.40;99.90;;;;;;6093544;23;20045;-81
2021/05/24 02:35:27;;;;;;;4.25;0.60;;;12.50;99.90;;;;;;6094033;23;20052;-81
2021/05/24 02:37:56;;;;;;;2.08;0.65;;;12.50;99.90;;;;;;6094396;23;20026;-81
2021/05/24 02:40:23;;;;;;;5.07;1.48;;;12.60;99.90;;;;;;6092999;23;20010;-81
2021/05/24 02:42:51;;;;;;;2.45;0.60;;;12.60;99.90;;;;;;6093623;23;20086;-81
2021/05/24 02:45:19;;;;;;;3.45;0.90;;;12.60;99.90;;;;;;6119250;23;20085;-81
2021/05/24 02:47:46;;;;;;;0.95;0.55;;;12.60;99.90;;;;;;6117232;23;20022;-82
2021/05/24 02:50:19;;;;;;;1.75;0.88;;;12.70;99.90;;;;;;6095296;23;20117;-82
2021/05/24 02:52:47;;;;;;;1.58;0.40;;;12.70;99.90;;;;;;6094525;23;20058;-82
2021/05/24 02:55:15;;;;;;;3.17;0.98;;;12.70;99.90;;;;;;6095567;23;20026;-82
2021/05/24 02:57:42;;;;;;;1.23;0.60;;;12.80;99.90;;;;;;6095259;23;20895;-82
2021/05/24 03:00:09;;;;;;;3.03;0.60;;;12.80;99.90;;;;;;6093864;23;20104;-81
2021/05/24 03:02:47;;;;;;;1.33;0.50;;;12.80;99.90;;;;;;6095286;23;20017;-81
2021/05/24 03:05:19;;;;;;;5.93;1.00;;;12.90;99.90;;;;;;6095598;23;20022;-82
2021/05/24 03:07:46;;;;;;;3.10;0.77;;;12.80;99.90;;;;;;6093167;23;20100;-82
2021/05/24 03:10:19;;;;;;;5.70;0.75;;;12.80;99.90;;;;;;6094286;23;20029;-82
2021/05/24 03:12:46;;;;;;;1.00;0.60;;;12.80;99.90;;;;;;6093525;23;20029;-81
2021/05/24 03:15:14;;;;;;;2.15;0.75;;;12.80;99.90;;;;;;6094910;23;20026;-82
2021/05/24 03:17:41;;;;;;;1.65;0.60;;;12.90;99.90;;;;;;6093738;23;20096;-81
2021/05/24 03:20:11;;;;;;;2.33;0.70;;;12.80;99.90;;;;;;6095253;23;20029;-82
2021/05/24 03:22:38;;;;;;;2.70;0.60;;;12.80;99.90;;;;;;6094222;23;20466;-82
2021/05/24 03:25:07;;;;;;;4.70;0.50;;;12.80;99.90;;;;;;6119413;23;20018;-82
2021/05/24 03:27:34;;;;;;;2.80;0.70;;;12.80;99.90;;;;;;6095673;23;20021;-82
2021/05/24 03:30:06;;;;;;;2.78;0.55;;;12.80;99.90;;;;;;6120833;23;20026;-82
2021/05/24 03:32:33;;;;;;;2.78;1.33;;;12.80;99.90;;;;;;6094758;23;20021;-82
2021/05/24 03:35:00;;;;;;;1.50;0.90;;;12.80;99.90;;;;;;6094537;23;20458;-82
2021/05/24 03:37:27;;;;;;;4.03;0.73;;;12.80;99.90;;;;;;6093810;23;20034;-82
2021/05/24 03:39:55;;;;;;;2.88;0.60;;;12.80;99.90;;;;;;6095569;23;20028;-82
2021/05/24 03:42:22;;;;;;;2.95;0.60;;;12.80;99.90;;;;;;6094871;23;20041;-81
2021/05/24 03:44:49;;;;;;;1.10;0.55;;;12.80;99.90;;;;;;6118531;23;20033;-81
2021/05/24 03:47:17;;;;;;;1.00;0.47;;;12.80;99.90;;;;;;6120960;23;20042;-82
2021/05/24 03:49:45;;;;;;;3.67;1.63;;;12.80;99.90;;;;;;6091550;23;20053;-81
2021/05/24 03:52:14;;;;;;;1.95;0.40;;;12.80;99.90;;;;;;6093180;23;20026;-82
2021/05/24 03:54:41;;;;;;;0.90;0.60;;;12.80;99.90;;;;;;6105863;23;20029;-82
2021/05/24 03:57:09;;;;;;;3.58;0.60;;;12.80;99.90;;;;;;6096978;23;20923;-82
2021/05/24 03:59:36;;;;;;;0.52;0.40;;;12.80;99.90;;;;;;6096527;23;20022;-81
2021/05/24 04:02:03;;;;;;;1.58;0.50;;;12.80;99.90;;;;;;6096545;23;20065;-82
2021/05/24 04:04:30;;;;;;;1.45;0.65;;;12.80;99.90;;;;;;6082726;23;20029;-82
2021/05/24 04:07:00;;;;;;;4.47;0.47;;;12.80;99.90;;;;;;6094084;23;20455;-82
2021/05/24 04:09:26;;;;;;;0.63;0.63;;;12.80;99.90;;;;;;6092762;23;20038;-83
2021/05/24 04:11:53;;;;;;;2.80;0.80;;;12.80;99.90;;;;;;6097792;23;20126;-82
2021/05/24 04:14:20;;;;;;;4.82;1.30;;;12.80;99.90;;;;;;6095792;23;20026;-82
2021/05/24 04:16:47;;;;;;;2.38;0.70;;;12.80;99.90;;;;;;6095993;23;20042;-81
2021/05/24 04:19:14;;;;;;;1.95;0.45;;;12.80;99.90;;;;;;6095502;23;20093;-82
2021/05/24 04:21:42;;;;;;;1.38;0.50;;;12.80;99.90;;;;;;6095812;23;20038;-82
2021/05/24 04:24:12;;;;;;;7.88;1.13;;;12.80;99.90;;;;;;6095177;23;20327;-82
2021/05/24 04:26:39;;;;;;;1.27;0.50;;;12.90;99.90;;;;;;6094586;23;20022;-81
2021/05/24 04:29:06;;;;;;;0.75;0.75;;;12.90;99.90;;;;;;6096051;23;20022;-82
2021/05/24 04:31:34;;;;;;;0.93;0.60;;;12.90;99.90;;;;;;6096731;23;20052;-82
2021/05/24 04:34:01;;;;;;;1.15;0.55;;;12.90;99.90;;;;;;6096461;23;20438;-81
2021/05/24 04:36:28;;;;;;;1.38;0.63;;;12.90;99.90;;;;;;6095754;23;20029;-81
2021/05/24 04:38:54;;;;;;;1.27;0.80;;;12.90;99.90;;;;;;6094548;23;20056;-81
2021/05/24 04:41:21;;;;;;;2.35;0.80;;;12.90;99.90;;;;;;6096716;23;20474;-81
2021/05/24 04:43:49;;;;;;;1.05;0.50;;;12.90;99.90;;;;;;6078878;23;20045;-82
2021/05/24 04:46:16;;;;;;;2.45;0.40;;;12.90;99.90;;;;;;6119604;23;20308;-82
2021/05/24 04:48:43;;;;;;;2.95;0.50;;;12.90;99.90;;;;;;6120563;23;20025;-82
2021/05/24 04:51:10;;;;;;;5.93;1.90;;;12.90;99.90;;;;;;6120711;23;20124;-82
2021/05/24 04:53:36;;;;;;;2.97;1.10;;;12.90;99.90;;;;;;6094083;23;20028;-81
2021/05/24 04:56:03;;;;;;;2.90;0.50;;;12.90;99.90;;;;;;6096834;23;20022;-82
2021/05/24 04:58:30;;;;;;;2.35;0.80;;;12.90;99.90;;;;;;6094480;23;20022;-81
2021/05/24 05:00:57;;;;;;;1.05;0.70;;;12.90;99.90;;;;;;6097660;23;20062;-81
2021/05/24 05:03:24;;;;;;;1.35;0.60;;;12.90;99.90;;;;;;6120616;23;20026;-81
2021/05/24 05:05:51;;;;;;;1.85;0.60;;;12.90;99.90;;;;;;6094975;23;20047;-82
2021/05/24 05:08:18;;;;;;;1.83;0.60;;;12.80;99.90;;;;;;6095259;23;20021;-82
2021/05/24 05:10:46;;;;;;;0.98;0.70;;;12.70;99.90;;;;;;6098151;23;21406;-81
2021/05/24 05:13:13;;;;;;;1.30;0.80;;;12.50;99.90;;;;;;6120016;23;20045;-81
2021/05/24 05:15:39;;;;;;;3.20;0.80;;;12.30;99.90;;;;;;6097078;23;20042;-81
2021/05/24 05:18:06;;;;;;;1.52;0.60;;;12.10;99.90;;;;;;6094911;23;20062;-81
2021/05/24 05:20:33;;;;;;;2.75;0.75;;;11.90;99.90;;;;;;6080771;23;20053;-82
2021/05/24 05:23:00;;;;;;;0.60;0.60;;;11.70;99.90;;;;;;6119685;23;20082;-81
2021/05/24 05:25:27;;;;;;;0.65;0.65;;;11.60;99.90;;;;;;6096802;23;20446;-81
2021/05/24 05:27:54;;;;;;;2.80;0.60;;;11.50;99.90;;;;;;6095152;23;20033;-81
2021/05/24 05:30:20;;;;;;;3.55;0.70;;;11.50;99.90;;;;;;6094899;23;20054;-81
2021/05/24 05:32:47;;;;;;;1.92;0.70;;;11.40;99.90;;;;;;6118868;23;20093;-81
2021/05/24 05:35:16;;;;;;;2.35;0.77;;;11.40;99.90;;;;;;6096481;23;20097;-81
2021/05/24 05:37:46;;;;;;;1.90;0.65;;;11.40;99.90;;;;;;6094714;23;20136;-81
2021/05/24 05:40:17;;;;;;;0.88;0.68;;;11.40;99.90;;;;;;6093609;23;20455;-81
2021/05/24 05:42:48;;;;;;;3.35;0.73;;;11.40;99.90;;;;;;6095300;23;20052;-82
2021/05/24 05:45:17;;;;;;;0.65;0.65;;;11.40;99.90;;;;;;6094820;23;20034;-81
2021/05/24 05:47:44;;;;;;;2.38;1.40;;;11.50;99.90;;;;;;6081048;23;20026;-81
2021/05/24 05:50:12;;;;;;;0.90;0.70;;;11.50;99.90;;;;;;6095489;23;20101;-81
2021/05/24 05:52:39;;;;;;;1.30;0.90;;;11.60;99.90;;;;;;6094329;23;20053;-81
2021/05/24 05:55:07;;;;;;;2.78;0.60;;;11.60;99.90;;;;;;6072598;23;20097;-82
2021/05/24 05:57:34;;;;;;;1.00;0.75;;;11.60;99.90;;;;;;6095117;23;20100;-81
2021/05/24 06:00:05;;;;;;;1.55;0.70;;;11.60;99.90;;;;;;6094968;23;20025;-81
2021/05/24 06:02:32;;;;;;;0.82;0.60;;;11.70;99.90;;;;;;6095907;23;20022;-81
2021/05/24 06:04:59;;;;;;;1.40;0.60;;;11.70;99.90;;;;;;6082864;23;20522;-81
2021/05/24 06:07:26;;;;;;;2.70;0.68;;;11.80;99.90;;;;;;6094552;23;20100;-82
2021/05/24 06:09:52;;;;;;;2.92;0.70;;;11.80;99.90;;;;;;6095545;23;20032;-81
2021/05/24 06:12:19;;;;;;;4.03;0.70;;;11.90;99.90;;;;;;6120379;23;20495;-82
2021/05/24 06:14:46;;;;;;;0.68;0.60;;;12.00;99.90;;;;;;6094499;23;20045;-82
2021/05/24 06:17:13;;;;;;;1.85;0.60;;;12.00;99.90;;;;;;6095468;23;20364;-83
2021/05/24 06:19:54;;;;;;;2.13;0.80;;;12.00;99.90;;;;;;6095287;23;20117;-82
2021/05/24 06:22:21;;;;;;;0.82;0.60;;;12.10;99.90;;;;;;6096726;23;20029;-84
2021/05/24 06:24:48;;;;;;;1.88;0.85;;;12.20;99.90;;;;;;6096354;23;20078;-83
2021/05/24 06:27:15;;;;;;;2.03;0.93;;;12.30;99.90;;;;;;6096811;23;20041;-83
2021/05/24 06:29:42;;;;;;;0.88;0.57;;;12.30;99.90;;;;;;6095760;23;20101;-83
2021/05/24 06:32:09;;;;;;;2.85;0.73;;;12.40;99.90;;;;;;6094691;23;20025;-83
2021/05/24 06:34:35;;;;;;;1.25;0.85;;;12.50;99.90;;;;;;6096113;23;20104;-84
2021/05/24 06:37:02;;;;;;;1.52;0.90;;;12.50;99.90;;;;;;6095356;23;20522;-83
2021/05/24 06:39:29;;;;;;;2.58;0.70;;;12.50;99.90;;;;;;6095225;23;20030;-83
2021/05/24 06:41:56;;;;;;;1.20;0.70;;;12.50;99.90;;;;;;6097533;23;20053;-84
2021/05/24 06:44:23;;;;;;;1.08;0.73;;;12.50;99.90;;;;;;6097131;23;20108;-83
2021/05/24 06:46:50;;;;;;;1.80;0.80;;;12.60;99.90;;;;;;6096423;23;20108;-82
2021/05/24 06:49:16;;;;;;;0.95;0.85;;;12.60;99.90;;;;;;6120830;23;20382;-83
2021/05/24 06:51:43;;;;;;;3.10;1.27;;;12.50;99.90;;;;;;6099101;23;20022;-82
2021/05/24 06:54:10;;;;;;;2.75;1.27;;;12.50;99.90;;;;;;6099290;23;20022;-84
2021/05/24 06:56:37;;;;;;;3.20;0.75;;;12.50;99.90;;;;;;6101922;23;20246;-83
2021/05/24 06:59:04;;;;;;;3.75;1.30;;;12.60;99.90;;;;;;6086952;23;20061;-83
2021/05/24 07:01:31;;;;;;;1.20;1.00;;;12.60;99.90;;;;;;6124581;23;20025;-84
2021/05/24 07:03:58;;;;;;;1.05;0.70;;;12.70;99.90;;;;;;6101606;23;20025;-86
2021/05/24 07:06:25;;;;;;;1.77;0.80;;;12.70;99.90;;;;;;6100393;23;20489;-84
2021/05/24 07:08:52;;;;;;;6.20;1.85;;;12.80;99.90;;;;;;6105181;23;20018;-84
2021/05/24 07:11:18;;;;;;;1.95;0.60;;;12.70;99.90;;;;;;6110482;23;20021;-84
2021/05/24 07:13:45;;;;;;;1.88;0.70;;;12.70;99.90;;;;;;6111638;23;20018;-84
2021/05/24 07:16:12;;;;;;;2.95;0.60;;;12.80;99.90;;;;;;6111467;23;20013;-84
2021/05/24 07:18:39;;;;;;;0.75;0.70;;;12.80;99.90;;;;;;6111817;23;20058;-84
2021/05/24 07:21:06;;;;;;;1.08;0.45;;;12.80;99.90;;;;;;6110453;23;20041;-84
2021/05/24 07:23:33;;;;;;;0.65;0.40;;;12.90;99.90;;;;;;6110560;23;20411;-84
2021/05/24 07:26:00;;;;;;;2.00;0.40;;;13.00;99.90;;;;;;6110470;23;20045;-84
2021/05/24 07:28:26;;;;;;;2.65;0.70;;;13.00;99.90;;;;;;6074005;23;20266;-84
2021/05/24 07:30:53;;;;;;;1.20;0.50;;;13.10;99.90;;;;;;6097527;23;20409;-84
2021/05/24 07:33:20;;;;;;;1.20;0.40;;;13.30;99.90;;;;;;6099097;23;20022;-84
2021/05/24 07:35:47;;;;;;;2.70;0.60;;;13.40;99.90;;;;;;6096588;23;20105;-83
2021/05/24 07:38:14;;;;;;;1.85;0.50;;;13.50;99.90;;;;;;6097123;23;20101;-84
2021/05/24 07:40:41;;;;;;;2.08;0.50;;;13.50;99.90;;;;;;6095999;23;20022;-84
2021/05/24 07:43:07;;;;;;;1.50;0.50;;;13.40;99.90;;;;;;6072992;23;20065;-84
2021/05/24 07:45:34;;;;;;;0.55;0.38;;;13.40;99.90;;;;;;6096474;23;20049;-83
2021/05/24 07:48:01;;;;;;;0.73;0.40;;;13.50;99.90;;;;;;6098155;23;20030;-84
2021/05/24 07:50:28;;;;;;;0.80;0.40;;;13.50;99.90;;;;;;6095814;23;20091;-84
2021/05/24 07:52:54;;;;;;;0.43;0.32;;;13.70;99.90;;;;;;6056963;23;20052;-83
2021/05/24 07:55:21;;;;;;;0.95;0.40;;;13.80;99.90;;;;;;6095954;23;20026;-83
2021/05/24 07:57:48;;;;;;;0.70;0.45;;;13.90;99.90;;;;;;6084371;23;20053;-83
2021/05/24 08:00:19;;;;;;;12.43;0.73;;;13.90;99.90;;;;;;6095425;23;20053;-84
2021/05/24 08:02:46;;;;;;;0.98;0.40;;;13.90;99.90;;;;;;6082462;23;20372;-83
2021/05/24 08:05:14;;;;;;;0.50;0.30;;;14.10;99.90;;;;;;6095849;23;20525;-84
2021/05/24 08:07:41;;;;;;;2.80;0.50;;;14.10;99.90;;;;;;6096094;23;20044;-83
2021/05/24 08:10:09;;;;;;;1.23;0.43;;;14.10;99.90;;;;;;6079681;23;20026;-83
2021/05/24 08:12:43;;;;;;;1.77;0.50;;;14.10;99.90;;;;;;6094336;23;20041;-83
2021/05/24 08:15:15;;;;;;;0.47;0.40;;;14.10;99.90;;;;;;6094600;23;20074;-83
2021/05/24 08:17:42;;;;;;;0.43;0.40;;;14.10;99.90;;;;;;6095900;23;20045;-82
2021/05/24 08:20:10;;;;;;;1.08;0.35;;;14.00;99.90;;;;;;6081262;23;24772;-84
2021/05/24 08:22:37;;;;;;;2.45;0.60;;;13.90;99.90;;;;;;6093519;23;20053;-83
2021/05/24 08:25:08;;;;;;;3.05;0.50;;;13.80;99.90;;;;;;6095151;23;20026;-82
2021/05/24 08:27:38;;;;;;;1.40;0.50;;;13.70;99.90;;;;;;6096187;23;20386;-83
2021/05/24 08:30:28;;;;;;;5.25;0.63;;;13.70;99.90;;;;;;6083184;23;20108;-84
2021/05/24 08:32:55;;;;;;;0.73;0.70;;;13.60;99.90;;;;;;6055468;23;20026;-83
2021/05/24 08:35:22;;;;;;;1.13;0.50;;;13.50;99.90;;;;;;6080451;23;21482;-85
2021/05/24 08:37:49;;;;;;;1.50;0.95;;;13.60;99.90;;;;;;6093008;23;20033;-83
2021/05/24 08:40:18;;;;;;;0.43;0.40;;;13.70;99.90;;;;;;6093751;23;20049;-83
2021/05/24 08:42:45;;;;;;;1.90;0.63;;;13.70;99.90;;;;;;6095610;23;20046;-84
2021/05/24 08:45:13;;;;;;;0.60;0.50;;;13.70;99.90;;;;;;6121242;23;20542;-83
2021/05/24 08:47:41;;;;;;;1.73;0.90;;;13.70;99.90;;;;;;6094386;23;20069;-83
2021/05/24 08:50:13;;;;;;;1.52;0.50;;;13.60;99.90;;;;;;6118968;23;20022;-83
2021/05/24 08:52:40;;;;;;;3.10;0.50;;;13.50;99.90;;;;;;6094636;23;20104;-83
2021/05/24 08:55:09;;;;;;;1.23;0.60;;;13.40;99.90;;;;;;6098739;23;20026;-83
2021/05/24 08:57:37;;;;;;;2.38;1.33;;;13.20;99.90;;;;;;6097581;23;20080;-83
2021/05/24 09:00:08;;;;;;;1.20;0.60;;;13.20;99.90;;;;;;6095144;23;20495;-83
2021/05/24 09:02:45;;;;;;;1.23;0.55;;;13.30;99.90;;;;;;6095740;23;20477;-83
2021/05/24 09:05:12;;;;;;;0.95;0.30;;;13.30;99.90;;;;;;6094371;23;20537;-84
2021/05/24 09:08:00;;;;;;;1.73;0.40;;;13.20;99.90;;;;;;6093435;23;20053;-82
2021/05/24 09:10:30;;;;;;;3.35;0.98;;;13.10;99.90;;;;;;6080014;23;20533;-82
2021/05/24 09:12:57;;;;;;;1.10;0.73;;;13.20;99.90;;;;;;6093292;23;20093;-83
2021/05/24 09:15:26;;;;;;;1.83;0.60;;;13.30;99.90;;;;;;6095395;23;20415;-82
2021/05/24 09:17:58;;;;;;;2.75;0.77;;;13.50;99.90;;;;;;6091722;23;20026;-83
2021/05/24 09:20:29;;;;;;;1.83;0.60;;;13.70;99.90;;;;;;6074068;23;20557;-87
2021/05/24 09:23:18;;;;;;;0.50;0.40;;;13.70;99.90;;;;;;6090363;23;20029;-86
2021/05/24 09:26:00;;;;;;;1.55;0.60;;;13.70;99.90;;;;;;6091228;23;20089;-84
2021/05/24 09:28:29;;;;;;;1.92;0.80;;;13.70;99.90;;;;;;6094662;23;20040;-84
2021/05/24 09:31:02;;;;;;;1.15;0.60;;;13.80;99.90;;;;;;6095254;23;20073;-83
2021/05/24 09:33:29;;;;;;;3.50;0.77;;;14.00;99.90;;;;;;6094903;23;20029;-83
2021/05/24 09:36:02;;;;;;;2.95;0.88;;;14.20;99.90;;;;;;6096110;23;20026;-83
2021/05/24 09:38:34;;;;;;;2.10;1.00;;;14.20;99.90;;;;;;6092438;23;20085;-83
2021/05/24 09:41:02;;;;;;;3.78;0.73;;;14.20;99.90;;;;;;6063203;23;20032;-83
2021/05/24 09:43:35;;;;;;;1.65;0.70;;;14.30;99.90;;;;;;6087123;23;20077;-82
2021/05/24 09:46:25;;;;;;;1.33;0.73;;;14.40;99.90;;;;;;6088695;23;20100;-82
2021/05/24 09:49:02;;;;;;;1.17;0.80;;;14.50;99.90;;;;;;6087953;23;20077;-82
2021/05/24 09:51:33;;;;;;;0.60;0.60;;;14.40;99.90;;;;;;6089985;23;20336;-83
2021/05/24 09:54:04;;;;;;;0.75;0.70;;;14.40;99.90;;;;;;6091310;23;20038;-83
2021/05/24 09:56:34;;;;;;;1.88;0.90;;;14.50;99.90;;;;;;6088346;23;20097;-83
2021/05/24 09:59:13;;;;;;;2.22;0.98;;;14.60;99.90;;;;;;6092572;23;20022;-83
2021/05/24 10:01:44;;;;;;;3.38;0.75;;;14.70;99.90;;;;;;6092160;23;20093;-83
2021/05/24 10:04:13;;;;;;;2.33;1.00;;;14.70;99.90;;;;;;6090473;23;20351;-82
2021/05/24 10:06:41;;;;;;;1.52;0.77;;;14.60;99.90;;;;;;6089541;23;20324;-82
2021/05/24 10:09:09;;;;;;;1.25;0.80;;;14.40;99.90;;;;;;6091057;23;20026;-83
2021/05/24 10:11:39;;;;;;;2.25;1.25;;;14.20;99.90;;;;;;6092086;23;20077;-83
2021/05/24 10:14:07;;;;;;;1.70;0.90;;;14.10;99.90;;;;;;6090491;23;20388;-83
2021/05/24 10:16:36;;;;;;;0.80;0.80;;;13.90;99.90;;;;;;6067392;23;20093;-83
2021/05/24 10:19:10;;;;;;;1.17;1.08;;;13.90;99.90;;;;;;6089688;23;20081;-83
2021/05/24 10:21:37;;;;;;;;;;;13.80;99.90;;;;;;6090243;23;20129;-83
2021/05/24 10:24:05;;;;;;;2.60;0.65;;;14.00;99.90;;;;;;6091764;23;19925;-83
2021/05/24 10:26:32;;;;;;;3.05;0.80;;;14.10;99.90;;;;;;6090439;23;20448;-83
2021/05/24 10:29:01;;;;;;;0.95;0.95;;;14.00;99.90;;;;;;6089896;23;20026;-83
2021/05/24 10:31:31;;;;;;;1.63;0.90;;;14.10;99.90;;;;;;6089280;23;20467;-83
2021/05/24 10:34:13;;;;;;;1.50;1.05;;;14.00;99.90;;;;;;6090419;23;20050;-81
2021/05/24 10:36:48;;;;;;;0.70;0.70;;;14.10;99.90;;;;;;6089785;23;20034;-82
2021/05/24 10:39:23;;;;;;;0.90;0.70;;;14.10;99.90;;;;;;6090270;23;20109;-81
2021/05/24 10:41:53;;;;;;;2.25;1.05;;;14.30;99.90;;;;;;6088578;23;20077;-83
2021/05/24 10:44:40;;;;;;;2.65;0.80;;;14.60;99.90;;;;;;6090058;23;20026;-83
2021/05/24 10:47:27;;;;;;;1.60;0.80;;;14.90;99.90;;;;;;6089782;23;20050;-83
2021/05/24 10:50:05;;;;;;;1.73;0.70;;;15.10;99.90;;;;;;6088187;23;20410;-83
2021/05/24 10:52:39;;;;;;;1.70;0.90;;;15.30;99.90;;;;;;6087634;23;20476;-83
2021/05/24 10:55:31;;;;;;;2.30;0.90;;;15.40;99.90;;;;;;6089075;23;20029;-83
2021/05/24 10:58:04;;;;;;;3.55;1.00;;;15.40;99.90;;;;;;6090419;23;20022;-82
2021/05/24 11:00:55;;;;;;;1.00;0.90;;;15.40;99.90;;;;;;6090150;23;20022;-82
2021/05/24 11:03:23;;;;;;;1.13;0.90;;;15.40;99.90;;;;;;6088704;23;20097;-82
2021/05/24 11:06:12;;;;;;;1.10;0.95;;;15.40;99.90;;;;;;6090939;23;20435;-83
2021/05/24 11:08:43;;;;;;;3.67;0.85;;;15.40;99.90;;;;;;6090217;23;20021;-83
2021/05/24 11:11:27;;;;;;;2.05;1.00;;;15.40;99.90;;;;;;6090427;23;20105;-83
2021/05/24 11:14:02;;;;;;;3.42;1.20;;;15.50;99.90;;;;;;6089887;23;20470;-83
2021/05/24 11:16:32;;;;;;;1.77;0.88;;;15.60;99.90;;;;;;6090142;23;20022;-83
2021/05/24 11:19:05;;;;;;;1.00;0.68;;;15.50;99.90;;;;;;6089345;23;20091;-83
2021/05/24 11:21:32;;;;;;;0.82;0.80;;;15.50;99.90;;;;;;6089884;23;20336;-83
2021/05/24 11:26:32;;;;;;;2.88;1.30;;;15.20;99.90;;;;;;6093719;23;20034;-83
2021/05/24 11:29:13;;;;;;;3.10;1.10;;;15.10;99.90;;;;;;6083309;23;20025;-82
2021/05/24 11:31:51;;;;;;;1.10;0.90;;;15.10;99.90;;;;;;6089785;23;20034;-83
2021/05/24 11:34:31;;;;;;;1.75;0.85;;;15.10;99.90;;;;;;6091404;23;20089;-82
2021/05/24 11:37:06;;;;;;;2.45;0.90;;;15.10;99.90;;;;;;6090062;23;20022;-83
2021/05/24 11:39:45;;;;;;;3.78;1.33;;;14.90;99.90;;;;;;6090212;23;20026;-82
2021/05/24 11:42:27;;;;;;;1.42;0.95;;;14.70;99.90;;;;;;6075254;23;20451;-83
2021/05/24 11:44:57;;;;;;;0.77;0.77;;;14.70;99.90;;;;;;6090180;23;20022;-84
2021/05/24 11:47:25;;;;;;;0.98;0.90;;;14.80;99.90;;;;;;6090117;23;20030;-83
2021/05/24 11:50:09;;;;;;;2.70;0.85;;;14.80;99.90;;;;;;6090788;23;20078;-85
2021/05/24 11:52:38;;;;;;;2.72;1.48;;;14.90;99.90;;;;;;6090234;23;20024;-84
2021/05/24 11:55:11;;;;;;;1.45;1.15;;;15.00;99.90;;;;;;6090794;23;20033;-84
2021/05/24 11:57:42;;;;;;;1.30;0.80;;;15.20;99.90;;;;;;6089821;23;20045;-84
2021/05/24 12:00:16;;;;;;;1.67;0.80;;;15.50;99.90;;;;;;6090471;23;20105;-85
2021/05/24 12:02:44;;;;;;;1.27;0.70;;;15.60;99.90;;;;;;6088152;23;20022;-84
2021/05/24 12:05:18;;;;;;;0.90;0.82;;;15.70;99.90;;;;;;6089604;23;20031;-84
2021/05/24 12:07:46;;;;;;;;;;;15.70;99.90;;;;;;6090166;23;20054;-84
2021/05/24 12:10:13;;;;;;;1.65;0.75;;;15.60;99.90;;;;;;6089020;23;20646;-84
2021/05/24 12:12:39;;;;;;;1.00;0.52;;;15.50;99.90;;;;;;6090045;23;20017;-83
2021/05/24 12:15:14;;;;;;;0.63;0.63;;;15.40;99.90;;;;;;6091949;23;20079;-83
2021/05/24 12:17:46;;;;;;;2.38;0.40;;;15.30;99.90;;;;;;6092963;23;20542;-83
2021/05/24 12:20:13;;;;;;;0.52;0.52;;;15.20;99.90;;;;;;6090508;23;20038;-84
2021/05/24 12:22:44;;;;;;;0.63;0.43;;;15.20;99.90;;;;;;6092344;23;20458;-84
2021/05/24 12:25:13;;;;;;;0.68;0.68;;;15.00;99.90;;;;;;6094639;23;20026;-84
2021/05/24 12:27:41;;;;;;;0.82;0.52;;;15.00;99.90;;;;;;6091337;23;20034;-84
2021/05/24 12:30:29;;;;;;;1.23;0.70;;;15.20;99.90;;;;;;6092436;23;20077;-84
2021/05/24 12:33:07;;;;;;;0.93;0.77;;;15.30;99.90;;;;;;6095153;23;20033;-83
2021/05/24 12:35:37;;;;;;;1.13;0.60;;;15.60;99.90;;;;;;6090067;23;20073;-84
2021/05/24 12:40:59;;;;;;;1.48;0.60;;;15.80;99.90;;;;;;6099832;23;20048;-83
2021/05/24 12:43:26;;;;;;;0.60;0.43;;;16.20;99.90;;;;;;6095654;23;20036;-83
2021/05/24 12:45:53;;;;;;;1.00;0.77;;;16.30;99.90;;;;;;6123721;23;20034;-83
2021/05/24 12:48:24;;;;;;;1.15;0.50;;;16.30;99.90;;;;;;6095873;23;20022;-83
2021/05/24 12:50:51;;;;;;;0.75;0.65;;;16.10;99.90;;;;;;6083315;23;20021;-83
2021/05/24 12:53:20;;;;;;;0.88;0.70;;;15.90;99.90;;;;;;6095584;23;20045;-83
2021/05/24 12:55:50;;;;;;;0.52;0.52;;;15.70;99.90;;;;;;6096948;23;20026;-83
2021/05/24 12:58:22;;;;;;;1.67;0.55;;;15.60;99.90;;;;;;6071063;23;20505;-83
2021/05/24 13:00:51;;;;;;;0.75;0.70;;;15.50;99.90;;;;;;6095520;23;20096;-83
2021/05/24 13:03:54;;;;;;;0.88;0.88;;;15.40;99.90;;;;;;6095949;23;20018;-83